createdAt,value
2023-02-12T00:00:19.602Z,926.71
2023-02-12T00:01:19.190Z,926.72
2023-02-12T00:02:19.281Z,926.72
2023-02-12T00:03:19.249Z,926.73
2023-02-12T00:04:19.155Z,926.74
2023-02-12T00:05:19.158Z,926.74
2023-02-12T00:06:19.166Z,926.73
2023-02-12T00:07:19.115Z,926.72
2023-02-12T00:08:19.115Z,926.72
2023-02-12T00:09:19.080Z,926.72
2023-02-12T00:10:19.099Z,926.73
2023-02-12T00:11:19.106Z,926.73
2023-02-12T00:12:19.103Z,926.75
2023-02-12T00:13:19.046Z,926.75
2023-02-12T00:14:19.060Z,926.75
2023-02-12T00:15:19.021Z,926.76
2023-02-12T00:16:19.167Z,926.77
2023-02-12T00:17:19.068Z,926.79
2023-02-12T00:18:19.072Z,926.80
2023-02-12T00:19:19.009Z,926.81
2023-02-12T00:20:19.054Z,926.82
2023-02-12T00:21:18.963Z,926.84
2023-02-12T00:22:18.970Z,926.85
2023-02-12T00:23:18.974Z,926.85
2023-02-12T00:24:18.971Z,926.86
2023-02-12T00:25:18.959Z,926.88
2023-02-12T00:26:18.920Z,926.89
2023-02-12T00:27:18.876Z,926.91
2023-02-12T00:28:19.009Z,926.92
2023-02-12T00:29:18.943Z,926.93
2023-02-12T00:30:18.970Z,926.95
2023-02-12T00:31:19.046Z,926.96
2023-02-12T00:32:18.905Z,926.96
2023-02-12T00:33:18.877Z,926.96
2023-02-12T00:34:18.851Z,926.97
2023-02-12T00:35:18.878Z,926.96
2023-02-12T00:36:18.911Z,926.96
2023-02-12T00:37:18.814Z,926.96
2023-02-12T00:38:18.809Z,926.96
2023-02-12T00:39:18.820Z,926.96
2023-02-12T00:40:18.804Z,926.97
2023-02-12T00:41:19.641Z,926.97
2023-02-12T00:42:18.760Z,926.96
2023-02-12T00:43:18.734Z,926.97
2023-02-12T00:44:18.712Z,926.99
2023-02-12T00:45:18.694Z,927.01
2023-02-12T00:46:18.831Z,927.02
2023-02-12T00:47:18.712Z,927.04
2023-02-12T00:48:19.134Z,927.04
2023-02-12T00:49:18.667Z,927.06
2023-02-12T00:50:18.630Z,927.07
2023-02-12T00:51:18.640Z,927.07
2023-02-12T00:52:18.635Z,927.08
2023-02-12T00:53:18.652Z,927.09
2023-02-12T00:54:19.108Z,927.10
2023-02-12T00:55:18.607Z,927.10
2023-02-12T00:56:18.611Z,927.09
2023-02-12T00:57:18.561Z,927.07
2023-02-12T00:58:19.202Z,927.06
2023-02-12T00:59:18.589Z,927.04
2023-02-12T01:00:18.600Z,927.03
2023-02-12T01:01:18.812Z,927.01
2023-02-12T01:02:18.553Z,927.02
2023-02-12T01:03:18.510Z,927.02
2023-02-12T01:04:18.514Z,927.03
2023-02-12T01:05:18.577Z,927.02
2023-02-12T01:06:18.474Z,927.05
2023-02-12T01:07:18.480Z,927.06
2023-02-12T01:08:18.543Z,927.05
2023-02-12T01:09:18.438Z,927.07
2023-02-12T01:10:18.465Z,927.06
2023-02-12T01:11:18.461Z,927.07
2023-02-12T01:12:18.412Z,927.09
2023-02-12T01:13:18.421Z,927.10
2023-02-12T01:14:18.377Z,927.11
2023-02-12T01:15:18.385Z,927.11
2023-02-12T01:16:18.510Z,927.11
2023-02-12T01:17:18.409Z,927.10
2023-02-12T01:18:18.354Z,927.10
2023-02-12T01:19:18.608Z,927.10
2023-02-12T01:20:18.338Z,927.09
2023-02-12T01:21:18.329Z,927.10
2023-02-12T01:22:18.374Z,927.09
2023-02-12T01:23:18.363Z,927.10
2023-02-12T01:24:18.298Z,927.11
2023-02-12T01:25:20.517Z,927.13
2023-02-12T01:26:18.260Z,927.14
2023-02-12T01:27:18.260Z,927.17
2023-02-12T01:28:18.324Z,927.19
2023-02-12T01:29:18.326Z,927.22
2023-02-12T01:30:18.242Z,927.23
2023-02-12T01:31:18.422Z,927.25
2023-02-12T01:32:18.329Z,927.25
2023-02-12T01:33:18.220Z,927.26
2023-02-12T01:34:18.202Z,927.25
2023-02-12T01:35:18.165Z,927.26
2023-02-12T01:36:18.181Z,927.26
2023-02-12T01:37:18.491Z,927.27
2023-02-12T01:38:18.261Z,927.25
2023-02-12T01:39:18.142Z,927.25
2023-02-12T01:40:18.917Z,927.26
2023-02-12T01:41:18.164Z,927.24
2023-02-12T01:42:18.119Z,927.24
2023-02-12T01:43:18.800Z,927.24
2023-02-12T01:44:18.098Z,927.21
2023-02-12T01:45:18.089Z,927.20
2023-02-12T01:46:18.135Z,927.19
2023-02-12T01:47:18.052Z,927.19
2023-02-12T01:48:18.058Z,927.20
2023-02-12T01:49:17.999Z,927.19
2023-02-12T01:50:18.031Z,927.18
2023-02-12T01:51:18.031Z,927.20
2023-02-12T01:52:18.079Z,927.21
2023-02-12T01:53:18.021Z,927.19
2023-02-12T01:54:18.027Z,927.21
2023-02-12T01:55:18.040Z,927.21
2023-02-12T01:56:17.947Z,927.24
2023-02-12T01:57:18.008Z,927.23
2023-02-12T01:58:17.950Z,927.23
2023-02-12T01:59:17.963Z,927.24
2023-02-12T02:00:17.926Z,927.24
2023-02-12T02:01:17.987Z,927.25
2023-02-12T02:02:17.985Z,927.23
2023-02-12T02:03:18.059Z,927.23
2023-02-12T02:04:17.894Z,927.23
2023-02-12T02:05:17.904Z,927.24
2023-02-12T02:06:17.938Z,927.22
2023-02-12T02:07:17.909Z,927.23
2023-02-12T02:08:17.917Z,927.23
2023-02-12T02:09:17.824Z,927.23
2023-02-12T02:10:18.136Z,927.23
2023-02-12T02:11:17.839Z,927.24
2023-02-12T02:12:17.856Z,927.22
2023-02-12T02:13:17.991Z,927.24
2023-02-12T02:14:17.803Z,927.20
2023-02-12T02:15:17.760Z,927.20
2023-02-12T02:16:17.860Z,927.22
2023-02-12T02:17:17.759Z,927.22
2023-02-12T02:18:17.719Z,927.20
2023-02-12T02:19:18.703Z,927.21
2023-02-12T02:20:17.730Z,927.21
2023-02-12T02:21:17.682Z,927.21
2023-02-12T02:22:17.686Z,927.20
2023-02-12T02:23:17.650Z,927.20
2023-02-12T02:24:17.619Z,927.21
2023-02-12T02:25:17.662Z,927.21
2023-02-12T02:26:17.628Z,927.20
2023-02-12T02:27:17.697Z,927.22
2023-02-12T02:28:17.660Z,927.20
2023-02-12T02:29:17.580Z,927.18
2023-02-12T02:30:17.599Z,927.17
2023-02-12T02:31:17.716Z,927.16
2023-02-12T02:32:17.555Z,927.19
2023-02-12T02:33:17.580Z,927.13
2023-02-12T02:34:17.565Z,927.12
2023-02-12T02:35:17.521Z,927.10
2023-02-12T02:36:17.536Z,927.10
2023-02-12T02:37:17.554Z,927.07
2023-02-12T02:38:17.474Z,927.06
2023-02-12T02:39:17.506Z,927.05
2023-02-12T02:40:17.456Z,927.03
2023-02-12T02:41:17.480Z,927.03
2023-02-12T02:42:17.529Z,927.00
2023-02-12T02:43:17.497Z,926.97
2023-02-12T02:44:17.487Z,926.98
2023-02-12T02:45:17.448Z,926.96
2023-02-12T02:46:17.415Z,926.97
2023-02-12T02:47:17.409Z,926.96
2023-02-12T02:48:17.408Z,926.96
2023-02-12T02:49:17.418Z,926.93
2023-02-12T02:50:17.359Z,926.94
2023-02-12T02:51:17.421Z,926.94
2023-02-12T02:52:17.335Z,926.91
2023-02-12T02:53:17.333Z,926.90
2023-02-12T02:54:17.654Z,926.90
2023-02-12T02:55:17.310Z,926.88
2023-02-12T02:56:17.308Z,926.87
2023-02-12T02:57:17.324Z,926.84
2023-02-12T02:58:17.323Z,926.83
2023-02-12T02:59:17.272Z,926.79
2023-02-12T03:00:17.283Z,926.76
2023-02-12T03:01:17.301Z,926.75
2023-02-12T03:02:17.277Z,926.72
2023-02-12T03:03:17.319Z,926.70
2023-02-12T03:04:17.277Z,926.68
2023-02-12T03:05:17.209Z,926.67
2023-02-12T03:06:17.266Z,926.64
2023-02-12T03:07:17.179Z,926.62
2023-02-12T03:08:17.203Z,926.62
2023-02-12T03:09:17.145Z,926.60
2023-02-12T03:10:17.289Z,926.60
2023-02-12T03:11:17.214Z,926.57
2023-02-12T03:12:17.693Z,926.56
2023-02-12T03:13:17.106Z,926.54
2023-02-12T03:14:17.134Z,926.53
2023-02-12T03:15:17.106Z,926.52
2023-02-12T03:16:17.166Z,926.51
2023-02-12T03:17:17.120Z,926.50
2023-02-12T03:18:17.152Z,926.51
2023-02-12T03:19:17.071Z,926.49
2023-02-12T03:20:17.104Z,926.50
2023-02-12T03:21:17.006Z,926.48
2023-02-12T03:22:17.090Z,926.47
2023-02-12T03:23:17.773Z,926.46
2023-02-12T03:24:17.001Z,926.43
2023-02-12T03:25:17.102Z,926.43
2023-02-12T03:26:16.971Z,926.40
2023-02-12T03:27:16.990Z,926.38
2023-02-12T03:28:17.034Z,926.38
2023-02-12T03:29:16.957Z,926.37
2023-02-12T03:30:17.002Z,926.37
2023-02-12T03:31:16.986Z,926.36
2023-02-12T03:32:16.958Z,926.36
2023-02-12T03:33:16.911Z,926.36
2023-02-12T03:34:16.929Z,926.34
2023-02-12T03:35:16.893Z,926.35
2023-02-12T03:36:17.147Z,926.35
2023-02-12T03:37:16.851Z,926.33
2023-02-12T03:38:16.918Z,926.31
2023-02-12T03:39:16.865Z,926.29
2023-02-12T03:40:16.869Z,926.28
2023-02-12T03:41:17.199Z,926.27
2023-02-12T03:42:17.207Z,926.26
2023-02-12T03:43:16.786Z,926.26
2023-02-12T03:44:17.606Z,926.25
2023-02-12T03:45:16.860Z,926.25
2023-02-12T03:46:16.812Z,926.24
2023-02-12T03:47:16.776Z,926.23
2023-02-12T03:48:16.811Z,926.21
2023-02-12T03:49:16.716Z,926.21
2023-02-12T03:50:16.791Z,926.20
2023-02-12T03:51:17.353Z,926.21
2023-02-12T03:52:16.673Z,926.20
2023-02-12T03:53:16.683Z,926.18
2023-02-12T03:54:16.674Z,926.17
2023-02-12T03:55:16.654Z,926.14
2023-02-12T03:56:16.663Z,926.13
2023-02-12T03:57:16.665Z,926.14
2023-02-12T03:58:16.633Z,926.12
2023-02-12T03:59:16.617Z,926.12
2023-02-12T04:00:16.655Z,926.13
2023-02-12T04:01:16.735Z,926.12
2023-02-12T04:02:16.798Z,926.12
2023-02-12T04:03:16.609Z,926.11
2023-02-12T04:04:16.683Z,926.11
2023-02-12T04:05:16.594Z,926.13
2023-02-12T04:06:16.579Z,926.12
2023-02-12T04:07:16.521Z,926.10
2023-02-12T04:08:16.532Z,926.11
2023-02-12T04:09:16.479Z,926.11
2023-02-12T04:10:16.491Z,926.10
2023-02-12T04:11:16.517Z,926.09
2023-02-12T04:12:16.514Z,926.08
2023-02-12T04:13:16.526Z,926.08
2023-02-12T04:14:16.469Z,926.08
2023-02-12T04:15:17.071Z,926.05
2023-02-12T04:16:16.479Z,926.03
2023-02-12T04:17:16.405Z,926.02
2023-02-12T04:18:16.493Z,926.00
2023-02-12T04:19:16.401Z,926.00
2023-02-12T04:20:16.414Z,925.99
2023-02-12T04:21:16.399Z,925.98
2023-02-12T04:22:16.408Z,925.96
2023-02-12T04:23:16.406Z,925.94
2023-02-12T04:24:16.356Z,925.93
2023-02-12T04:25:16.358Z,925.90
2023-02-12T04:26:16.346Z,925.88
2023-02-12T04:27:16.267Z,925.87
2023-02-12T04:28:16.473Z,925.87
2023-02-12T04:29:16.286Z,925.84
2023-02-12T04:30:16.661Z,925.82
2023-02-12T04:31:16.464Z,925.80
2023-02-12T04:32:16.207Z,925.78
2023-02-12T04:33:16.212Z,925.77
2023-02-12T04:34:16.300Z,925.75
2023-02-12T04:35:16.638Z,925.73
2023-02-12T04:36:16.270Z,925.70
2023-02-12T04:37:16.236Z,925.65
2023-02-12T04:38:16.215Z,925.65
2023-02-12T04:39:16.190Z,925.64
2023-02-12T04:40:16.224Z,925.61
2023-02-12T04:41:16.202Z,925.59
2023-02-12T04:42:16.232Z,925.59
2023-02-12T04:43:16.112Z,925.56
2023-02-12T04:44:16.142Z,925.56
2023-02-12T04:45:16.084Z,925.56
2023-02-12T04:46:16.174Z,925.55
2023-02-12T04:47:16.112Z,925.53
2023-02-12T04:48:16.104Z,925.52
2023-02-12T04:49:16.075Z,925.48
2023-02-12T04:50:16.023Z,925.46
2023-02-12T04:51:16.106Z,925.45
2023-02-12T04:52:16.095Z,925.44
2023-02-12T04:53:16.144Z,925.43
2023-02-12T04:54:16.112Z,925.42
2023-02-12T04:55:16.112Z,925.42
2023-02-12T04:56:15.950Z,925.42
2023-02-12T04:57:15.966Z,925.37
2023-02-12T04:58:15.965Z,925.35
2023-02-12T04:59:17.722Z,925.32
2023-02-12T05:00:16.199Z,925.31
2023-02-12T05:01:15.965Z,925.31
2023-02-12T05:02:15.890Z,925.30
2023-02-12T05:03:15.973Z,925.31
2023-02-12T05:04:15.930Z,925.31
2023-02-12T05:05:16.016Z,925.27
2023-02-12T05:06:15.924Z,925.26
2023-02-12T05:07:15.825Z,925.24
2023-02-12T05:08:15.900Z,925.22
2023-02-12T05:09:15.845Z,925.21
2023-02-12T05:10:15.862Z,925.20
2023-02-12T05:11:16.150Z,925.18
2023-02-12T05:12:15.937Z,925.17
2023-02-12T05:13:15.828Z,925.16
2023-02-12T05:14:15.830Z,925.17
2023-02-12T05:15:16.460Z,925.17
2023-02-12T05:16:15.906Z,925.16
2023-02-12T05:17:15.797Z,925.16
2023-02-12T05:18:15.873Z,925.15
2023-02-12T05:19:16.067Z,925.14
2023-02-12T05:20:16.103Z,925.13
2023-02-12T05:21:15.797Z,925.10
2023-02-12T05:22:15.802Z,925.09
2023-02-12T05:23:16.406Z,925.07
2023-02-12T05:24:15.803Z,925.05
2023-02-12T05:25:15.715Z,925.03
2023-02-12T05:26:15.832Z,925.03
2023-02-12T05:27:15.671Z,925.02
2023-02-12T05:28:15.803Z,925.01
2023-02-12T05:29:15.740Z,925.02
2023-02-12T05:30:16.256Z,925.02
2023-02-12T05:31:15.770Z,925.02
2023-02-12T05:32:15.716Z,925.03
2023-02-12T05:33:16.196Z,925.02
2023-02-12T05:34:15.661Z,925.03
2023-02-12T05:35:15.664Z,925.04
2023-02-12T05:36:16.201Z,925.04
2023-02-12T05:37:15.573Z,925.06
2023-02-12T05:38:15.578Z,925.07
2023-02-12T05:39:15.594Z,925.06
2023-02-12T05:40:15.595Z,925.05
2023-02-12T05:41:15.612Z,925.08
2023-02-12T05:42:15.541Z,925.07
2023-02-12T05:43:15.536Z,925.08
2023-02-12T05:44:15.524Z,925.07
2023-02-12T05:45:15.537Z,925.06
2023-02-12T05:46:15.579Z,925.04
2023-02-12T05:47:15.498Z,925.05
2023-02-12T05:48:15.441Z,925.06
2023-02-12T05:49:15.473Z,925.06
2023-02-12T05:50:15.450Z,925.05
2023-02-12T05:51:15.464Z,925.03
2023-02-12T05:52:15.484Z,925.04
2023-02-12T05:53:15.479Z,925.05
2023-02-12T05:54:15.386Z,925.04
2023-02-12T05:55:15.416Z,925.04
2023-02-12T05:56:15.405Z,925.04
2023-02-12T05:57:15.427Z,925.03
2023-02-12T05:58:16.198Z,924.99
2023-02-12T05:59:15.423Z,924.98
2023-02-12T06:00:15.424Z,924.99
2023-02-12T06:01:15.348Z,924.95
2023-02-12T06:02:15.396Z,924.96
2023-02-12T06:03:15.283Z,925.00
2023-02-12T06:04:15.474Z,924.97
2023-02-12T06:05:15.357Z,924.98
2023-02-12T06:06:15.370Z,924.98
2023-02-12T06:07:15.323Z,924.98
2023-02-12T06:08:15.277Z,924.98
2023-02-12T06:09:15.219Z,924.98
2023-02-12T06:10:15.289Z,924.99
2023-02-12T06:11:16.166Z,924.99
2023-02-12T06:12:15.203Z,925.01
2023-02-12T06:13:15.204Z,925.02
2023-02-12T06:14:15.225Z,925.02
2023-02-12T06:15:15.231Z,925.03
2023-02-12T06:16:15.791Z,925.02
2023-02-12T06:17:15.138Z,925.01
2023-02-12T06:18:15.113Z,925.00
2023-02-12T06:19:15.086Z,924.99
2023-02-12T06:20:15.136Z,924.99
2023-02-12T06:21:15.232Z,924.98
2023-02-12T06:22:15.144Z,924.99
2023-02-12T06:23:15.069Z,925.00
2023-02-12T06:24:15.096Z,925.00
2023-02-12T06:25:15.090Z,925.01
2023-02-12T06:26:15.032Z,925.02
2023-02-12T06:27:15.303Z,925.02
2023-02-12T06:28:15.134Z,925.00
2023-02-12T06:29:15.024Z,924.99
2023-02-12T06:30:15.020Z,924.97
2023-02-12T06:31:15.082Z,924.97
2023-02-12T06:32:15.031Z,924.97
2023-02-12T06:33:15.050Z,924.98
2023-02-12T06:34:14.961Z,924.99
2023-02-12T06:35:14.956Z,924.98
2023-02-12T06:36:14.968Z,925.00
2023-02-12T06:37:14.964Z,924.99
2023-02-12T06:38:14.896Z,924.98
2023-02-12T06:39:15.259Z,924.97
2023-02-12T06:40:14.954Z,924.96
2023-02-12T06:41:14.858Z,924.95
2023-02-12T06:42:14.866Z,924.94
2023-02-12T06:43:14.826Z,924.92
2023-02-12T06:44:14.818Z,924.91
2023-02-12T06:45:14.901Z,924.89
2023-02-12T06:46:14.917Z,924.87
2023-02-12T06:47:14.781Z,924.87
2023-02-12T06:48:14.845Z,924.82
2023-02-12T06:49:14.768Z,924.82
2023-02-12T06:50:14.753Z,924.82
2023-02-12T06:51:15.246Z,924.81
2023-02-12T06:52:14.729Z,924.80
2023-02-12T06:53:14.748Z,924.81
2023-02-12T06:54:14.761Z,924.82
2023-02-12T06:55:14.699Z,924.84
2023-02-12T06:56:14.719Z,924.86
2023-02-12T06:57:14.708Z,924.87
2023-02-12T06:58:14.675Z,924.88
2023-02-12T06:59:14.727Z,924.91
2023-02-12T07:00:14.797Z,924.93
2023-02-12T07:01:14.675Z,924.94
2023-02-12T07:02:14.644Z,924.94
2023-02-12T07:03:14.645Z,924.96
2023-02-12T07:04:14.705Z,924.96
2023-02-12T07:05:14.617Z,924.97
2023-02-12T07:06:14.614Z,924.95
2023-02-12T07:07:14.569Z,924.94
2023-02-12T07:08:14.646Z,924.95
2023-02-12T07:09:14.694Z,924.94
2023-02-12T07:10:14.569Z,924.95
2023-02-12T07:11:14.560Z,924.97
2023-02-12T07:12:14.585Z,924.97
2023-02-12T07:13:14.510Z,924.98
2023-02-12T07:14:14.518Z,924.99
2023-02-12T07:15:14.527Z,924.99
2023-02-12T07:16:14.580Z,924.99
2023-02-12T07:17:14.433Z,924.99
2023-02-12T07:18:14.512Z,924.99
2023-02-12T07:19:14.452Z,924.99
2023-02-12T07:20:14.457Z,925.00
2023-02-12T07:21:14.505Z,925.01
2023-02-12T07:22:14.421Z,925.02
2023-02-12T07:23:14.373Z,925.04
2023-02-12T07:24:14.377Z,925.05
2023-02-12T07:25:14.363Z,925.05
2023-02-12T07:26:14.395Z,925.07
2023-02-12T07:27:14.344Z,925.07
2023-02-12T07:28:14.400Z,925.07
2023-02-12T07:29:14.284Z,925.06
2023-02-12T07:30:14.328Z,925.04
2023-02-12T07:31:14.470Z,925.04
2023-02-12T07:32:14.375Z,925.02
2023-02-12T07:33:14.282Z,925.01
2023-02-12T07:34:14.318Z,924.98
2023-02-12T07:35:14.224Z,924.96
2023-02-12T07:36:14.229Z,924.96
2023-02-12T07:37:14.244Z,924.95
2023-02-12T07:38:14.245Z,924.94
2023-02-12T07:39:14.230Z,924.94
2023-02-12T07:40:14.185Z,924.93
2023-02-12T07:41:14.158Z,924.93
2023-02-12T07:42:14.170Z,924.93
2023-02-12T07:43:14.189Z,924.93
2023-02-12T07:44:14.185Z,924.94
2023-02-12T07:45:14.190Z,924.94
2023-02-12T07:46:14.222Z,924.94
2023-02-12T07:47:14.095Z,924.94
2023-02-12T07:48:14.193Z,924.94
2023-02-12T07:49:14.129Z,924.95
2023-02-12T07:50:14.127Z,924.96
2023-02-12T07:51:14.166Z,924.96
2023-02-12T07:52:14.101Z,924.96
2023-02-12T07:53:14.040Z,924.96
2023-02-12T07:54:14.044Z,924.96
2023-02-12T07:55:14.053Z,924.96
2023-02-12T07:56:14.060Z,924.97
2023-02-12T07:57:14.031Z,924.98
2023-02-12T07:58:13.986Z,924.99
2023-02-12T07:59:13.979Z,924.99
2023-02-12T08:00:13.991Z,925.01
2023-02-12T08:01:14.001Z,925.03
2023-02-12T08:02:14.035Z,925.02
2023-02-12T08:03:13.969Z,925.03
2023-02-12T08:04:14.037Z,925.05
2023-02-12T08:05:13.926Z,925.06
2023-02-12T08:06:14.030Z,925.08
2023-02-12T08:07:13.935Z,925.09
2023-02-12T08:08:13.952Z,925.09
2023-02-12T08:09:13.925Z,925.11
2023-02-12T08:10:13.878Z,925.11
2023-02-12T08:11:13.933Z,925.11
2023-02-12T08:12:13.862Z,925.11
2023-02-12T08:13:13.879Z,925.13
2023-02-12T08:14:13.871Z,925.11
2023-02-12T08:15:14.194Z,925.13
2023-02-12T08:16:13.817Z,925.14
2023-02-12T08:17:13.812Z,925.14
2023-02-12T08:18:13.815Z,925.14
2023-02-12T08:19:20.190Z,925.14
2023-02-12T08:20:13.899Z,925.15
2023-02-12T08:21:13.731Z,925.16
2023-02-12T08:22:13.727Z,925.18
2023-02-12T08:23:13.742Z,925.19
2023-02-12T08:24:13.823Z,925.20
2023-02-12T08:25:13.753Z,925.20
2023-02-12T08:26:13.751Z,925.22
2023-02-12T08:27:13.667Z,925.24
2023-02-12T08:28:13.732Z,925.25
2023-02-12T08:29:13.672Z,925.25
2023-02-12T08:30:15.431Z,925.26
2023-02-12T08:31:13.752Z,925.28
2023-02-12T08:32:13.948Z,925.28
2023-02-12T08:33:13.608Z,925.29
2023-02-12T08:34:13.695Z,925.31
2023-02-12T08:35:13.597Z,925.32
2023-02-12T08:36:13.633Z,925.34
2023-02-12T08:37:13.679Z,925.35
2023-02-12T08:38:13.645Z,925.36
2023-02-12T08:39:13.689Z,925.37
2023-02-12T08:40:13.537Z,925.37
2023-02-12T08:41:13.534Z,925.37
2023-02-12T08:42:13.572Z,925.37
2023-02-12T08:43:13.555Z,925.37
2023-02-12T08:44:13.578Z,925.38
2023-02-12T08:45:13.573Z,925.40
2023-02-12T08:46:13.519Z,925.42
2023-02-12T08:47:13.475Z,925.43
2023-02-12T08:48:13.503Z,925.44
2023-02-12T08:49:13.492Z,925.43
2023-02-12T08:50:13.516Z,925.43
2023-02-12T08:51:13.514Z,925.44
2023-02-12T08:52:13.418Z,925.45
2023-02-12T08:53:13.421Z,925.46
2023-02-12T08:54:13.429Z,925.47
2023-02-12T08:55:13.533Z,925.48
2023-02-12T08:56:13.346Z,925.49
2023-02-12T08:57:13.354Z,925.51
2023-02-12T08:58:13.411Z,925.53
2023-02-12T08:59:13.356Z,925.53
2023-02-12T09:00:13.356Z,925.55
2023-02-12T09:01:13.364Z,925.56
2023-02-12T09:02:13.380Z,925.57
2023-02-12T09:03:13.344Z,925.58
2023-02-12T09:04:13.289Z,925.59
2023-02-12T09:05:13.328Z,925.60
2023-02-12T09:06:13.308Z,925.60
2023-02-12T09:07:13.264Z,925.59
2023-02-12T09:08:13.217Z,925.59
2023-02-12T09:09:13.281Z,925.60
2023-02-12T09:10:13.216Z,925.62
2023-02-12T09:11:13.314Z,925.65
2023-02-12T09:12:13.239Z,925.69
2023-02-12T09:13:13.208Z,925.71
2023-02-12T09:14:13.183Z,925.73
2023-02-12T09:15:13.193Z,925.74
2023-02-12T09:16:13.158Z,925.76
2023-02-12T09:17:13.150Z,925.78
2023-02-12T09:18:13.153Z,925.80
2023-02-12T09:19:13.128Z,925.84
2023-02-12T09:20:13.092Z,925.86
2023-02-12T09:21:13.089Z,925.88
2023-02-12T09:22:13.104Z,925.89
2023-02-12T09:23:13.088Z,925.89
2023-02-12T09:24:13.121Z,925.89
2023-02-12T09:25:13.053Z,925.90
2023-02-12T09:26:13.062Z,925.91
2023-02-12T09:27:13.073Z,925.92
2023-02-12T09:28:13.134Z,925.92
2023-02-12T09:29:13.050Z,925.93
2023-02-12T09:30:13.028Z,925.94
2023-02-12T09:31:13.088Z,925.95
2023-02-12T09:32:13.113Z,925.96
2023-02-12T09:33:13.005Z,925.97
2023-02-12T09:34:13.010Z,925.97
2023-02-12T09:35:13.021Z,926.00
2023-02-12T09:36:13.027Z,926.01
2023-02-12T09:37:12.977Z,926.03
2023-02-12T09:38:12.937Z,926.03
2023-02-12T09:39:12.941Z,926.04
2023-02-12T09:40:12.909Z,926.03
2023-02-12T09:41:12.993Z,926.03
2023-02-12T09:42:12.921Z,926.03
2023-02-12T09:43:12.867Z,926.02
2023-02-12T09:44:12.876Z,926.01
2023-02-12T09:45:12.883Z,926.01
2023-02-12T09:46:12.882Z,926.00
2023-02-12T09:47:12.896Z,926.01
2023-02-12T09:48:12.844Z,926.01
2023-02-12T09:49:12.808Z,926.02
2023-02-12T09:50:12.850Z,926.02
2023-02-12T09:51:12.830Z,926.02
2023-02-12T09:52:12.770Z,926.02
2023-02-12T09:53:12.785Z,926.03
2023-02-12T09:54:12.783Z,926.04
2023-02-12T09:55:12.754Z,926.05
2023-02-12T09:56:12.754Z,926.07
2023-02-12T09:57:12.701Z,926.09
2023-02-12T09:58:12.708Z,926.11
2023-02-12T09:59:12.720Z,926.11
2023-02-12T10:00:12.786Z,926.12
2023-02-12T10:01:12.743Z,926.13
2023-02-12T10:02:12.694Z,926.13
2023-02-12T10:03:12.706Z,926.14
2023-02-12T10:04:12.757Z,926.15
2023-02-12T10:05:12.735Z,926.15
2023-02-12T10:06:12.721Z,926.15
2023-02-12T10:07:12.774Z,926.16
2023-02-12T10:08:12.627Z,926.18
2023-02-12T10:09:12.639Z,926.18
2023-02-12T10:10:12.590Z,926.19
2023-02-12T10:11:12.599Z,926.20
2023-02-12T10:12:12.557Z,926.22
2023-02-12T10:13:12.617Z,926.25
2023-02-12T10:14:12.569Z,926.26
2023-02-12T10:15:12.567Z,926.29
2023-02-12T10:16:12.641Z,926.30
2023-02-12T10:17:12.543Z,926.30
2023-02-12T10:18:12.502Z,926.32
2023-02-12T10:19:12.549Z,926.34
2023-02-12T10:20:12.506Z,926.36
2023-02-12T10:21:12.463Z,926.37
2023-02-12T10:22:12.468Z,926.38
2023-02-12T10:23:12.479Z,926.40
2023-02-12T10:24:12.428Z,926.41
2023-02-12T10:25:12.491Z,926.43
2023-02-12T10:26:12.496Z,926.44
2023-02-12T10:27:12.418Z,926.46
2023-02-12T10:28:12.441Z,926.48
2023-02-12T10:29:12.413Z,926.49
2023-02-12T10:30:12.369Z,926.49
2023-02-12T10:31:12.478Z,926.50
2023-02-12T10:32:12.313Z,926.49
2023-02-12T10:33:12.318Z,926.48
2023-02-12T10:34:12.390Z,926.48
2023-02-12T10:35:12.406Z,926.48
2023-02-12T10:36:12.362Z,926.48
2023-02-12T10:37:12.368Z,926.47
2023-02-12T10:38:12.249Z,926.46
2023-02-12T10:39:12.257Z,926.46
2023-02-12T10:40:12.262Z,926.44
2023-02-12T10:41:12.328Z,926.43
2023-02-12T10:42:12.276Z,926.42
2023-02-12T10:43:12.288Z,926.42
2023-02-12T10:44:12.188Z,926.41
2023-02-12T10:45:12.248Z,926.41
2023-02-12T10:46:12.255Z,926.41
2023-02-12T10:47:12.205Z,926.42
2023-02-12T10:48:12.214Z,926.42
2023-02-12T10:49:12.201Z,926.44
2023-02-12T10:50:12.123Z,926.47
2023-02-12T10:51:12.183Z,926.49
2023-02-12T10:52:12.135Z,926.51
2023-02-12T10:53:12.139Z,926.52
2023-02-12T10:54:12.106Z,926.52
2023-02-12T10:55:12.111Z,926.54
2023-02-12T10:56:12.100Z,926.56
2023-02-12T10:57:12.072Z,926.59
2023-02-12T10:58:12.072Z,926.62
2023-02-12T10:59:12.081Z,926.65
2023-02-12T11:00:11.995Z,926.67
2023-02-12T11:01:12.090Z,926.69
2023-02-12T11:02:11.993Z,926.69
2023-02-12T11:03:12.012Z,926.70
2023-02-12T11:04:12.070Z,926.71
2023-02-12T11:05:12.079Z,926.73
2023-02-12T11:06:12.078Z,926.76
2023-02-12T11:07:11.942Z,926.78
2023-02-12T11:08:11.931Z,926.79
2023-02-12T11:09:11.941Z,926.80
2023-02-12T11:10:11.948Z,926.80
2023-02-12T11:11:11.992Z,926.79
2023-02-12T11:12:11.873Z,926.80
2023-02-12T11:13:11.873Z,926.81
2023-02-12T11:14:11.873Z,926.81
2023-02-12T11:15:11.878Z,926.81
2023-02-12T11:16:11.953Z,926.80
2023-02-12T11:17:11.904Z,926.77
2023-02-12T11:18:11.875Z,926.75
2023-02-12T11:19:11.909Z,926.73
2023-02-12T11:20:11.872Z,926.73
2023-02-12T11:21:11.825Z,926.74
2023-02-12T11:22:11.829Z,926.75
2023-02-12T11:23:11.783Z,926.75
2023-02-12T11:24:11.802Z,926.74
2023-02-12T11:25:11.910Z,926.75
2023-02-12T11:26:11.757Z,926.74
2023-02-12T11:27:11.767Z,926.74
2023-02-12T11:28:11.950Z,926.75
2023-02-12T11:29:11.911Z,926.76
2023-02-12T11:30:11.731Z,926.77
2023-02-12T11:31:11.762Z,926.77
2023-02-12T11:32:11.750Z,926.77
2023-02-12T11:33:11.707Z,926.78
2023-02-12T11:34:11.761Z,926.78
2023-02-12T11:35:11.663Z,926.78
2023-02-12T11:36:11.685Z,926.79
2023-02-12T11:37:11.623Z,926.81
2023-02-12T11:38:11.627Z,926.81
2023-02-12T11:39:11.691Z,926.82
2023-02-12T11:40:11.645Z,926.80
2023-02-12T11:41:11.617Z,926.79
2023-02-12T11:42:11.556Z,926.78
2023-02-12T11:43:11.570Z,926.77
2023-02-12T11:44:11.575Z,926.78
2023-02-12T11:45:11.581Z,926.79
2023-02-12T11:46:11.596Z,926.81
2023-02-12T11:47:11.539Z,926.82
2023-02-12T11:48:11.510Z,926.83
2023-02-12T11:49:11.564Z,926.84
2023-02-12T11:50:12.384Z,926.85
2023-02-12T11:51:11.526Z,926.84
2023-02-12T11:52:11.528Z,926.82
2023-02-12T11:53:11.532Z,926.82
2023-02-12T11:54:11.439Z,926.81
2023-02-12T11:55:11.446Z,926.81
2023-02-12T11:56:11.453Z,926.82
2023-02-12T11:57:11.455Z,926.83
2023-02-12T11:58:11.408Z,926.84
2023-02-12T11:59:11.878Z,926.87
2023-02-12T12:00:11.378Z,926.92
2023-02-12T12:01:11.390Z,926.91
2023-02-12T12:02:11.489Z,926.94
2023-02-12T12:03:11.537Z,926.94
2023-02-12T12:04:11.355Z,926.94
2023-02-12T12:05:11.360Z,926.93
2023-02-12T12:06:11.370Z,926.92
2023-02-12T12:07:11.386Z,926.91
2023-02-12T12:08:11.319Z,926.92
2023-02-12T12:09:11.330Z,926.92
2023-02-12T12:10:11.557Z,926.95
2023-02-12T12:11:11.524Z,926.95
2023-02-12T12:12:11.267Z,926.95
2023-02-12T12:13:11.314Z,926.93
2023-02-12T12:14:11.306Z,926.94
2023-02-12T12:15:11.472Z,926.97
2023-02-12T12:16:11.297Z,926.96
2023-02-12T12:17:11.194Z,926.95
2023-02-12T12:18:11.193Z,926.96
2023-02-12T12:19:11.259Z,926.96
2023-02-12T12:20:11.254Z,926.97
2023-02-12T12:21:11.158Z,926.99
2023-02-12T12:22:11.274Z,926.98
2023-02-12T12:23:11.178Z,926.97
2023-02-12T12:24:11.201Z,926.98
2023-02-12T12:25:11.187Z,926.98
2023-02-12T12:26:11.135Z,926.99
2023-02-12T12:27:11.109Z,926.99
2023-02-12T12:28:11.188Z,927.01